createdAt,value
2018-12-06T00:03:34.620Z,4.90
2018-12-06T00:06:10.623Z,4.90
2018-12-06T00:08:49.975Z,4.90
2018-12-06T00:11:27.292Z,4.90
2018-12-06T00:14:03.519Z,4.90
2018-12-06T00:16:41.866Z,5.00
2018-12-06T00:19:18.252Z,4.90
2018-12-06T00:21:55.686Z,4.90
2018-12-06T00:24:30.855Z,4.90
2018-12-06T00:27:06.873Z,5.00
2018-12-06T00:29:55.498Z,5.00
2018-12-06T00:32:30.835Z,5.00
2018-12-06T00:35:05.452Z,5.00
2018-12-06T00:37:40.303Z,5.00
2018-12-06T00:40:14.887Z,4.90
2018-12-06T00:42:51.368Z,4.90
2018-12-06T00:45:32.203Z,4.90
2018-12-06T00:48:06.489Z,4.90
2018-12-06T00:50:44.079Z,4.90
2018-12-06T00:53:23.788Z,4.90
2018-12-06T00:55:58.450Z,4.90
2018-12-06T00:58:35.626Z,4.90
2018-12-06T01:01:15.336Z,4.90
2018-12-06T01:03:52.499Z,4.90
2018-12-06T01:06:27.599Z,4.90
2018-12-06T01:09:05.073Z,4.90
2018-12-06T01:11:39.925Z,4.90
2018-12-06T01:14:20.705Z,4.90
2018-12-06T01:16:59.695Z,4.90
2018-12-06T01:19:44.513Z,5.00
2018-12-06T01:22:19.590Z,4.90
2018-12-06T01:24:59.058Z,4.90
2018-12-06T01:30:21.508Z,4.90
2018-12-06T01:33:03.337Z,4.90
2018-12-06T01:35:40.818Z,4.90
2018-12-06T01:38:18.267Z,4.90
2018-12-06T01:40:55.273Z,4.90
2018-12-06T01:43:30.669Z,4.90
2018-12-06T01:46:07.725Z,4.90
2018-12-06T01:48:48.648Z,5.00
2018-12-06T01:51:24.475Z,5.00
2018-12-06T01:54:01.955Z,5.00
2018-12-06T01:56:37.660Z,5.00
2018-12-06T02:01:56.512Z,5.00
2018-12-06T02:04:32.675Z,5.00
2018-12-06T02:07:07.494Z,5.00
2018-12-06T02:09:43.839Z,5.00
2018-12-06T02:12:18.925Z,5.00
2018-12-06T02:14:54.154Z,5.10
2018-12-06T02:17:32.184Z,5.00
2018-12-06T02:20:06.997Z,5.00
2018-12-06T02:22:46.273Z,5.00
2018-12-06T02:25:24.224Z,5.00
2018-12-06T02:28:05.560Z,5.00
2018-12-06T02:30:41.478Z,5.10
2018-12-06T02:33:17.337Z,5.10
2018-12-06T02:35:57.629Z,5.00
2018-12-06T02:38:32.647Z,5.00
2018-12-06T02:41:07.820Z,5.00
2018-12-06T02:43:54.506Z,5.00
2018-12-06T02:46:28.980Z,5.10
2018-12-06T02:49:04.026Z,5.10
2018-12-06T02:51:39.947Z,5.10
2018-12-06T02:54:17.259Z,5.10
2018-12-06T02:56:52.388Z,5.10
2018-12-06T02:59:27.798Z,5.10
2018-12-06T03:02:02.466Z,5.20
2018-12-06T03:04:37.452Z,5.20
2018-12-06T03:07:11.968Z,5.20
2018-12-06T03:09:46.881Z,5.20
2018-12-06T03:12:25.424Z,5.20
2018-12-06T03:15:01.357Z,5.30
2018-12-06T03:17:36.867Z,5.20
2018-12-06T03:20:16.682Z,5.30
2018-12-06T03:22:53.605Z,5.30
2018-12-06T03:25:28.844Z,5.30
2018-12-06T03:28:09.391Z,5.30
2018-12-06T03:30:56.697Z,5.30
2018-12-06T03:33:35.113Z,5.30
2018-12-06T03:36:21.390Z,5.30
2018-12-06T03:39:07.411Z,5.30
2018-12-06T03:41:45.485Z,5.30
2018-12-06T03:44:23.559Z,5.30
2018-12-06T03:47:02.143Z,5.30
2018-12-06T03:49:37.041Z,5.30
2018-12-06T03:52:28.246Z,5.30
2018-12-06T04:00:01.455Z,5.30
2018-12-06T04:02:46.027Z,5.30
2018-12-06T04:11:25.327Z,5.30
2018-12-06T04:17:06.118Z,5.40
2018-12-06T04:37:31.896Z,5.70
2018-12-06T04:43:15.427Z,5.70
2018-12-06T04:46:07.922Z,5.70
2018-12-06T04:48:47.579Z,5.70
2018-12-06T04:51:27.928Z,5.80
2018-12-06T04:54:09.464Z,5.80
2018-12-06T04:56:57.601Z,5.80
2018-12-06T04:59:38.514Z,5.80
2018-12-06T05:02:26.217Z,5.80
2018-12-06T05:05:09.764Z,5.80
2018-12-06T05:08:02.537Z,5.80
2018-12-06T05:10:54.758Z,5.80
2018-12-06T05:13:37.370Z,5.80
2018-12-06T05:16:23.443Z,5.90
2018-12-06T05:19:05.879Z,5.80
2018-12-06T05:21:58.706Z,5.80
2018-12-06T05:24:42.599Z,5.80
2018-12-06T05:30:27.392Z,5.90
2018-12-06T05:33:20.935Z,5.80
2018-12-06T05:39:04.032Z,5.90
2018-12-06T05:41:45.519Z,5.90
2018-12-06T05:44:36.159Z,5.90
2018-12-06T05:47:21.151Z,5.90
2018-12-06T05:50:02.608Z,5.90
2018-12-06T05:52:47.236Z,5.90
2018-12-06T05:55:33.505Z,6.00
2018-12-06T05:58:19.922Z,6.00
2018-12-06T06:01:03.777Z,6.00
2018-12-06T06:03:54.693Z,6.00
2018-12-06T06:06:40.951Z,6.10
2018-12-06T06:09:22.885Z,6.10
2018-12-06T06:12:12.153Z,6.10
2018-12-06T06:14:59.389Z,6.10
2018-12-06T06:20:35.195Z,6.10
2018-12-06T06:23:12.422Z,6.10
2018-12-06T06:25:51.803Z,6.10
2018-12-06T06:28:27.352Z,6.10
2018-12-06T06:31:05.639Z,6.20
2018-12-06T06:33:48.982Z,6.20
2018-12-06T06:36:25.710Z,6.10
2018-12-06T06:38:59.972Z,6.10
2018-12-06T06:41:39.075Z,6.10
2018-12-06T06:44:16.758Z,6.10
2018-12-06T06:46:53.938Z,6.10
2018-12-06T06:49:32.499Z,6.10
2018-12-06T06:52:11.655Z,6.10
2018-12-06T06:54:48.626Z,6.20
2018-12-06T06:57:29.987Z,6.20
2018-12-06T07:00:26.441Z,6.20
2018-12-06T07:03:02.283Z,6.30
2018-12-06T07:05:47.374Z,6.30
2018-12-06T07:08:32.739Z,6.40
2018-12-06T07:11:07.503Z,6.40
2018-12-06T07:13:44.849Z,6.40
2018-12-06T07:16:20.022Z,6.40
2018-12-06T07:19:15.390Z,6.40
2018-12-06T07:21:51.973Z,6.50
2018-12-06T07:24:28.678Z,6.50
2018-12-06T07:27:04.122Z,6.50
2018-12-06T07:29:40.800Z,6.50
2018-12-06T07:32:15.787Z,6.50
2018-12-06T07:34:51.056Z,6.50
2018-12-06T07:37:28.459Z,6.60
2018-12-06T07:40:05.143Z,6.60
2018-12-06T07:42:43.211Z,6.60
2018-12-06T07:45:20.421Z,6.70
2018-12-06T07:47:59.410Z,6.60
2018-12-06T07:50:33.975Z,6.70
2018-12-06T07:53:11.739Z,6.70
2018-12-06T07:55:52.212Z,6.80
2018-12-06T07:58:28.599Z,6.80
2018-12-06T08:01:05.784Z,6.80
2018-12-06T08:03:46.364Z,6.80
2018-12-06T08:06:23.015Z,6.80
2018-12-06T08:08:57.675Z,6.90
2018-12-06T08:11:33.791Z,6.90
2018-12-06T08:14:10.456Z,6.90
2018-12-06T08:16:44.871Z,6.90
2018-12-06T08:19:19.322Z,6.90
2018-12-06T08:21:53.835Z,7.00
2018-12-06T08:24:28.755Z,7.10
2018-12-06T08:27:05.123Z,7.00
2018-12-06T08:29:40.236Z,7.10
2018-12-06T08:32:15.507Z,7.10
2018-12-06T08:35:03.872Z,7.10
2018-12-06T08:37:40.270Z,7.20
2018-12-06T08:40:16.606Z,7.20
2018-12-06T08:42:51.639Z,7.20
2018-12-06T08:45:26.235Z,7.20
2018-12-06T08:48:00.734Z,7.20
2018-12-06T08:50:35.095Z,7.20
2018-12-06T08:53:10.224Z,7.30
2018-12-06T08:55:47.205Z,7.30
2018-12-06T08:58:22.372Z,7.30
2018-12-06T09:00:57.300Z,7.30
2018-12-06T09:03:32.172Z,7.30
2018-12-06T09:06:06.572Z,7.40
2018-12-06T09:08:45.218Z,7.40
2018-12-06T09:11:20.273Z,7.40
2018-12-06T09:13:56.148Z,7.50
2018-12-06T09:16:32.376Z,7.50
2018-12-06T09:19:07.664Z,7.50
2018-12-06T09:21:43.427Z,7.50
2018-12-06T09:24:17.627Z,7.60
2018-12-06T09:26:58.535Z,7.70
2018-12-06T09:29:28.576Z,7.80
2018-12-06T09:32:03.486Z,7.90
2018-12-06T09:34:40.296Z,7.90
2018-12-06T09:37:17.881Z,8.00
2018-12-06T09:39:57.662Z,8.10
2018-12-06T09:42:31.796Z,8.20
2018-12-06T09:45:07.344Z,8.40
2018-12-06T09:47:42.751Z,8.60
2018-12-06T09:50:17.060Z,8.70
2018-12-06T09:52:52.448Z,8.80
2018-12-06T09:55:28.914Z,8.90
2018-12-06T09:58:08.523Z,8.90
2018-12-06T10:00:44.804Z,9.00
2018-12-06T10:03:19.384Z,9.00
2018-12-06T10:05:54.080Z,8.90
2018-12-06T10:08:28.334Z,8.90
2018-12-06T10:11:04.665Z,8.80
2018-12-06T10:13:40.314Z,8.70
2018-12-06T10:16:14.838Z,8.60
2018-12-06T10:18:49.121Z,8.60
2018-12-06T10:21:23.281Z,8.60
2018-12-06T10:23:57.585Z,8.70
2018-12-06T10:26:31.882Z,8.70
2018-12-06T10:29:06.990Z,8.80
2018-12-06T10:31:42.232Z,8.80
2018-12-06T10:34:16.562Z,8.80
2018-12-06T10:36:53.193Z,8.80
2018-12-06T10:39:28.807Z,8.90
2018-12-06T10:42:07.243Z,9.00
2018-12-06T10:44:46.042Z,9.10
2018-12-06T10:47:20.366Z,9.20
2018-12-06T10:49:54.778Z,9.20
2018-12-06T10:52:29.172Z,9.30
2018-12-06T10:55:04.311Z,9.20
2018-12-06T10:57:38.580Z,9.20
2018-12-06T11:00:22.388Z,9.10
2018-12-06T11:03:03.096Z,9.10
2018-12-06T11:05:37.695Z,9.10
2018-12-06T11:08:13.859Z,9.20
2018-12-06T11:10:51.462Z,9.10
2018-12-06T11:13:26.588Z,9.20
2018-12-06T11:16:02.315Z,9.20
2018-12-06T11:18:37.163Z,9.20
2018-12-06T11:21:13.578Z,9.10
2018-12-06T11:23:50.258Z,9.10
2018-12-06T11:26:24.727Z,9.10
2018-12-06T11:28:59.051Z,9.10
2018-12-06T11:31:34.874Z,9.00
2018-12-06T11:34:10.620Z,9.00
2018-12-06T11:36:46.651Z,8.90
2018-12-06T11:39:21.936Z,8.90
2018-12-06T11:41:58.158Z,8.90
2018-12-06T11:44:34.313Z,8.90
2018-12-06T11:47:10.777Z,9.00
2018-12-06T11:49:45.111Z,9.00
2018-12-06T11:52:22.198Z,9.00
2018-12-06T11:54:59.687Z,9.00
2018-12-06T11:57:36.340Z,9.10
2018-12-06T12:00:15.499Z,9.00
2018-12-06T12:02:52.139Z,9.00
2018-12-06T12:05:28.559Z,8.90
2018-12-06T12:08:04.684Z,9.00
2018-12-06T12:10:41.822Z,9.00
2018-12-06T12:13:24.368Z,9.00
2018-12-06T12:16:01.371Z,9.00
2018-12-06T12:18:36.848Z,9.00
2018-12-06T12:21:11.927Z,9.00
2018-12-06T12:23:48.715Z,9.10
2018-12-06T12:26:26.508Z,9.10
2018-12-06T12:29:02.415Z,9.10
2018-12-06T12:31:42.986Z,9.20
2018-12-06T12:34:19.364Z,9.20
2018-12-06T12:37:02.735Z,9.20
2018-12-06T12:39:37.942Z,9.20
2018-12-06T12:42:13.740Z,9.20
2018-12-06T12:44:55.523Z,9.20
2018-12-06T12:47:32.497Z,9.20
2018-12-06T12:50:14.912Z,9.10
2018-12-06T12:52:50.619Z,9.10
2018-12-06T12:55:25.953Z,9.20
2018-12-06T12:58:05.699Z,9.10
2018-12-06T13:00:43.342Z,9.20
2018-12-06T13:03:20.562Z,9.10
2018-12-06T13:05:57.368Z,9.20
2018-12-06T13:08:38.726Z,9.10
2018-12-06T13:11:15.721Z,9.10
2018-12-06T13:13:50.770Z,9.10
2018-12-06T13:16:26.922Z,9.20
2018-12-06T13:19:07.918Z,9.20
2018-12-06T13:21:46.480Z,9.10
2018-12-06T13:24:24.250Z,9.10
2018-12-06T13:26:59.899Z,9.10
2018-12-06T13:29:36.876Z,9.10
2018-12-06T13:32:12.223Z,9.10
2018-12-06T13:34:47.714Z,9.20
2018-12-06T13:37:22.408Z,9.20
2018-12-06T13:39:57.852Z,9.10
2018-12-06T13:42:35.336Z,9.10
2018-12-06T13:45:10.765Z,9.10
2018-12-06T13:47:47.855Z,9.00
2018-12-06T13:50:25.381Z,9.00
2018-12-06T13:53:01.429Z,9.00
2018-12-06T13:55:37.442Z,9.00
2018-12-06T13:58:13.301Z,9.00
2018-12-06T14:00:49.352Z,9.00
2018-12-06T14:03:25.977Z,9.00
2018-12-06T14:06:00.615Z,9.00
2018-12-06T14:08:35.645Z,9.10
2018-12-06T14:11:10.713Z,9.10
2018-12-06T14:13:46.769Z,9.10
2018-12-06T14:16:21.783Z,9.10
2018-12-06T14:18:59.012Z,9.10
2018-12-06T14:21:33.564Z,9.10
2018-12-06T14:24:08.627Z,9.10
2018-12-06T14:26:43.867Z,9.20
2018-12-06T14:29:18.824Z,9.20
2018-12-06T14:31:53.325Z,9.20
2018-12-06T14:34:38.392Z,9.30
2018-12-06T14:37:12.765Z,9.30
2018-12-06T14:39:50.845Z,9.30
2018-12-06T14:42:25.303Z,9.30
2018-12-06T14:44:59.550Z,9.30
2018-12-06T14:47:34.394Z,9.30
2018-12-06T14:50:09.584Z,9.30
2018-12-06T14:52:45.357Z,9.30
2018-12-06T14:55:20.499Z,9.20
2018-12-06T14:57:55.844Z,9.30
2018-12-06T15:00:32.259Z,9.20
2018-12-06T15:03:08.996Z,9.20
2018-12-06T15:05:49.465Z,9.20
2018-12-06T15:08:25.004Z,9.30
2018-12-06T15:10:59.644Z,9.20
2018-12-06T15:13:35.969Z,9.20
2018-12-06T15:16:16.610Z,9.30
2018-12-06T15:18:53.635Z,9.30
2018-12-06T15:21:31.338Z,9.30
2018-12-06T15:24:10.713Z,9.40
2018-12-06T15:26:45.338Z,9.40
2018-12-06T15:29:25.150Z,9.40
2018-12-06T15:32:04.814Z,9.40
2018-12-06T15:34:41.179Z,9.40
2018-12-06T15:37:16.357Z,9.40
2018-12-06T15:39:53.283Z,9.50
2018-12-06T15:42:29.329Z,9.40
2018-12-06T15:45:04.467Z,9.50
2018-12-06T15:47:40.012Z,9.50
2018-12-06T15:50:19.264Z,9.50
2018-12-06T15:52:55.748Z,9.50
2018-12-06T15:55:30.908Z,9.60
2018-12-06T15:58:06.130Z,9.50
2018-12-06T16:00:41.153Z,9.60
2018-12-06T16:03:19.223Z,9.60
2018-12-06T16:05:55.439Z,9.60
2018-12-06T16:08:29.928Z,9.60
2018-12-06T16:11:04.370Z,9.60
2018-12-06T16:13:38.959Z,9.60
2018-12-06T16:16:14.399Z,9.60
2018-12-06T16:18:50.654Z,9.60
2018-12-06T16:21:24.888Z,9.60
2018-12-06T16:23:59.553Z,9.70
2018-12-06T16:26:34.635Z,9.70
2018-12-06T16:29:09.945Z,9.70
2018-12-06T16:31:44.506Z,9.70
2018-12-06T16:34:31.015Z,9.70
2018-12-06T16:37:05.955Z,9.80
2018-12-06T16:39:41.419Z,9.70
2018-12-06T16:42:16.581Z,9.80
2018-12-06T16:44:51.218Z,9.90
2018-12-06T16:47:25.500Z,9.90
2018-12-06T16:50:04.204Z,9.90
2018-12-06T16:52:42.184Z,10.00
2018-12-06T16:55:18.726Z,10.00
2018-12-06T16:57:53.034Z,10.20
2018-12-06T17:00:28.387Z,10.30
2018-12-06T17:03:06.876Z,10.30
2018-12-06T17:05:41.467Z,10.40
2018-12-06T17:08:16.243Z,10.40
2018-12-06T17:10:50.683Z,10.50
2018-12-06T17:13:25.055Z,10.50
2018-12-06T17:16:00.999Z,10.50
2018-12-06T17:18:40.895Z,10.50
2018-12-06T17:21:15.316Z,10.60
2018-12-06T17:23:56.806Z,10.60
2018-12-06T17:26:35.874Z,10.70
2018-12-06T17:29:10.221Z,10.70
2018-12-06T17:31:44.456Z,10.70
2018-12-06T17:34:19.709Z,10.80
2018-12-06T17:36:54.326Z,10.80
2018-12-06T17:39:29.456Z,10.90
2018-12-06T17:42:04.095Z,10.90
2018-12-06T17:44:38.399Z,10.90
2018-12-06T17:47:13.518Z,11.00
2018-12-06T17:49:48.188Z,10.90
2018-12-06T17:52:29.308Z,11.00
2018-12-06T17:55:12.459Z,11.00
2018-12-06T17:57:51.475Z,11.00
2018-12-06T18:00:29.561Z,11.00
2018-12-06T18:03:13.423Z,11.00
2018-12-06T18:05:54.735Z,11.00
2018-12-06T18:08:30.562Z,11.00
2018-12-06T18:11:06.535Z,11.00
2018-12-06T18:13:41.269Z,11.00
2018-12-06T18:16:25.420Z,11.10
2018-12-06T18:19:01.911Z,11.00
2018-12-06T18:21:43.622Z,11.00
2018-12-06T18:24:29.263Z,11.10
2018-12-06T18:27:06.065Z,11.10
2018-12-06T18:29:40.746Z,11.10
2018-12-06T18:32:15.571Z,11.20
2018-12-06T18:34:51.599Z,11.20
2018-12-06T18:37:29.456Z,11.20
2018-12-06T18:43:14.307Z,11.20
2018-12-06T18:45:55.633Z,11.20
2018-12-06T18:48:34.139Z,11.20
2018-12-06T18:51:15.340Z,11.20
2018-12-06T18:53:55.740Z,11.20
2018-12-06T18:56:33.782Z,11.20
2018-12-06T18:59:10.009Z,11.30
2018-12-06T19:01:46.101Z,11.30
2018-12-06T19:04:23.515Z,11.30
2018-12-06T19:07:10.180Z,11.30
2018-12-06T19:12:26.982Z,11.20
2018-12-06T19:15:09.254Z,11.20
2018-12-06T19:21:02.207Z,11.30
2018-12-06T19:23:52.618Z,11.30
2018-12-06T19:26:32.558Z,11.30
2018-12-06T19:29:16.007Z,11.30
2018-12-06T19:31:51.538Z,11.40
2018-12-06T19:34:29.702Z,11.40
2018-12-06T19:37:10.304Z,11.40
2018-12-06T19:39:45.442Z,11.40
2018-12-06T19:42:28.965Z,11.40
2018-12-06T19:45:06.089Z,11.40
2018-12-06T19:47:44.472Z,11.40
2018-12-06T19:50:26.792Z,11.40
2018-12-06T19:53:02.880Z,11.40
2018-12-06T19:55:44.970Z,11.40
2018-12-06T19:58:21.622Z,11.40
2018-12-06T20:01:01.639Z,11.50
2018-12-06T20:03:37.495Z,11.40
2018-12-06T20:06:12.249Z,11.50
2018-12-06T20:14:09.957Z,11.50
2018-12-06T20:16:44.858Z,11.50
2018-12-06T20:19:24.847Z,11.50
2018-12-06T20:21:59.665Z,11.50
2018-12-06T20:24:35.477Z,11.50
2018-12-06T20:27:10.341Z,11.50
2018-12-06T20:29:48.238Z,11.40
2018-12-06T20:32:24.088Z,11.50
2018-12-06T20:37:59.304Z,11.50
2018-12-06T20:40:39.295Z,11.50
2018-12-06T20:43:15.290Z,11.50
2018-12-06T20:45:53.753Z,11.50
2018-12-06T20:48:29.292Z,11.50
2018-12-06T20:51:04.885Z,11.50
2018-12-06T20:53:39.433Z,11.50
2018-12-06T20:58:56.856Z,11.50
2018-12-06T21:01:36.842Z,11.50
2018-12-06T21:04:11.607Z,11.50
2018-12-06T21:06:47.223Z,11.50
2018-12-06T21:09:24.381Z,11.50
2018-12-06T21:12:01.651Z,11.50
2018-12-06T21:14:38.720Z,11.50
2018-12-06T21:17:16.761Z,11.50
2018-12-06T21:19:53.083Z,11.50
2018-12-06T21:22:27.849Z,11.50
2018-12-06T21:25:02.540Z,11.50
2018-12-06T21:27:48.751Z,11.50
2018-12-06T21:30:24.215Z,11.50
2018-12-06T21:32:59.770Z,11.50
2018-12-06T21:35:34.775Z,11.50
2018-12-06T21:38:10.951Z,11.50
2018-12-06T21:40:45.255Z,11.50
2018-12-06T21:43:20.235Z,11.50
2018-12-06T21:45:58.659Z,11.50
2018-12-06T21:48:34.287Z,11.50
2018-12-06T21:51:08.936Z,11.50
2018-12-06T21:53:43.159Z,11.50
2018-12-06T21:56:17.910Z,11.50
2018-12-06T21:58:52.427Z,11.60
2018-12-06T22:01:26.934Z,11.60
2018-12-06T22:04:03.858Z,11.60
2018-12-06T22:06:38.854Z,11.60
2018-12-06T22:09:14.234Z,11.60
2018-12-06T22:11:50.964Z,11.70
2018-12-06T22:14:27.896Z,11.70
2018-12-06T22:17:02.757Z,11.70
2018-12-06T22:19:39.510Z,11.70
2018-12-06T22:22:17.185Z,11.70
2018-12-06T22:24:52.528Z,11.80
2018-12-06T22:27:27.127Z,11.80
2018-12-06T22:30:01.906Z,11.80
2018-12-06T22:32:36.483Z,11.80
2018-12-06T22:35:12.338Z,11.80
2018-12-06T22:37:47.252Z,11.90
2018-12-06T22:40:21.563Z,11.80
2018-12-06T22:42:56.473Z,11.80
2018-12-06T22:46:02.127Z,11.80
2018-12-06T22:48:36.923Z,11.90
2018-12-06T22:51:12.798Z,11.90
2018-12-06T22:56:30.251Z,11.90
2018-12-06T22:59:05.053Z,12.00
2018-12-06T23:01:39.824Z,12.00
2018-12-06T23:04:14.414Z,12.00
2018-12-06T23:06:48.918Z,12.00
2018-12-06T23:09:23.291Z,12.00
2018-12-06T23:11:57.607Z,12.00
2018-12-06T23:14:32.271Z,12.00
2018-12-06T23:17:07.446Z,12.00
2018-12-06T23:19:41.960Z,12.00
2018-12-06T23:22:16.196Z,12.00
2018-12-06T23:24:50.766Z,12.00
2018-12-06T23:27:25.070Z,12.00
2018-12-06T23:29:59.542Z,12.00
2018-12-06T23:32:34.271Z,12.00
2018-12-06T23:35:08.769Z,12.00
2018-12-06T23:37:43.516Z,11.90
2018-12-06T23:40:17.892Z,11.90
2018-12-06T23:42:52.607Z,11.90
2018-12-06T23:45:26.842Z,11.90
2018-12-06T23:48:01.296Z,11.90
2018-12-06T23:50:35.749Z,11.90
2018-12-06T23:53:10.038Z,11.90
2018-12-06T23:55:45.071Z,11.90
2018-12-06T23:58:20.153Z,11.90
